sensor_id;sensor_type;location;lat;lon;timestamp;P1;P2;P0
64229;PMS5003;50547;49.498;0.092;2023-12-29T00:01:05;9;9;
64229;PMS5003;50547;49.498;0.092;2023-12-29T00:03:35;9;9;
64229;PMS5003;50547;49.498;0.092;2023-12-29T00:06:04;7;7;
64229;PMS5003;50547;49.498;0.092;2023-12-29T00:08:34;7;7;
64229;PMS5003;50547;49.498;0.092;2023-12-29T00:11:04;9;9;
64229;PMS5003;50547;49.498;0.092;2023-12-29T00:13:34;10;10;
64229;PMS5003;50547;49.498;0.092;2023-12-29T00:15:59;10;10;
64229;PMS5003;50547;49.498;0.092;2023-12-29T00:18:29;9;9;
64229;PMS5003;50547;49.498;0.092;2023-12-29T00:20:58;7;7;
64229;PMS5003;50547;49.498;0.092;2023-12-29T00:23:27;9;9;
64229;PMS5003;50547;49.498;0.092;2023-12-29T00:25:56;9;9;
64229;PMS5003;50547;49.498;0.092;2023-12-29T00:28:25;8;8;
64229;PMS5003;50547;49.498;0.092;2023-12-29T00:30:54;8;8;
64229;PMS5003;50547;49.498;0.092;2023-12-29T00:33:23;9;9;
64229;PMS5003;50547;49.498;0.092;2023-12-29T00:35:52;10;10;
64229;PMS5003;50547;49.498;0.092;2023-12-29T00:38:21;9;9;
64229;PMS5003;50547;49.498;0.092;2023-12-29T00:40:50;9;9;
64229;PMS5003;50547;49.498;0.092;2023-12-29T00:43:19;8;8;
64229;PMS5003;50547;49.498;0.092;2023-12-29T00:45:48;9;9;
64229;PMS5003;50547;49.498;0.092;2023-12-29T00:48:17;7;7;
64229;PMS5003;50547;49.498;0.092;2023-12-29T00:50:46;8;8;
64229;PMS5003;50547;49.498;0.092;2023-12-29T00:53:15;8;8;
64229;PMS5003;50547;49.498;0.092;2023-12-29T00:55:44;7;7;
64229;PMS5003;50547;49.498;0.092;2023-12-29T00:58:13;8;8;
64229;PMS5003;50547;49.498;0.092;2023-12-29T01:00:42;9;9;
64229;PMS5003;50547;49.498;0.092;2023-12-29T01:03:08;8;8;
64229;PMS5003;50547;49.498;0.092;2023-12-29T01:05:36;10;10;
64229;PMS5003;50547;49.498;0.092;2023-12-29T01:08:05;7;7;
64229;PMS5003;50547;49.498;0.092;2023-12-29T01:10:32;7;7;
64229;PMS5003;50547;49.498;0.092;2023-12-29T01:13:02;7;7;
64229;PMS5003;50547;49.498;0.092;2023-12-29T01:15:31;8;8;
64229;PMS5003;50547;49.498;0.092;2023-12-29T01:18:00;8;8;
64229;PMS5003;50547;49.498;0.092;2023-12-29T01:20:29;8;8;
64229;PMS5003;50547;49.498;0.092;2023-12-29T01:22:58;7;7;
64229;PMS5003;50547;49.498;0.092;2023-12-29T01:25:27;8;8;
64229;PMS5003;50547;49.498;0.092;2023-12-29T01:27:56;7;7;
64229;PMS5003;50547;49.498;0.092;2023-12-29T01:30:25;7;7;
64229;PMS5003;50547;49.498;0.092;2023-12-29T01:32:54;7;7;
64229;PMS5003;50547;49.498;0.092;2023-12-29T01:35:23;10;10;
64229;PMS5003;50547;49.498;0.092;2023-12-29T01:37:52;7;7;
64229;PMS5003;50547;49.498;0.092;2023-12-29T01:40:21;8;8;
64229;PMS5003;50547;49.498;0.092;2023-12-29T01:42:50;9;9;
64229;PMS5003;50547;49.498;0.092;2023-12-29T01:45:20;8;8;
64229;PMS5003;50547;49.498;0.092;2023-12-29T01:47:51;8;8;
64229;PMS5003;50547;49.498;0.092;2023-12-29T01:50:31;8;8;
64229;PMS5003;50547;49.498;0.092;2023-12-29T01:53:02;10;10;
64229;PMS5003;50547;49.498;0.092;2023-12-29T01:55:34;7;7;
64229;PMS5003;50547;49.498;0.092;2023-12-29T01:58:03;8;8;
64229;PMS5003;50547;49.498;0.092;2023-12-29T02:00:33;8;8;
64229;PMS5003;50547;49.498;0.092;2023-12-29T02:03:02;8;8;
64229;PMS5003;50547;49.498;0.092;2023-12-29T02:05:31;8;8;
64229;PMS5003;50547;49.498;0.092;2023-12-29T02:08:04;8;8;
64229;PMS5003;50547;49.498;0.092;2023-12-29T02:10:48;8;8;
64229;PMS5003;50547;49.498;0.092;2023-12-29T02:13:17;10;10;
64229;PMS5003;50547;49.498;0.092;2023-12-29T02:15:47;7;7;
64229;PMS5003;50547;49.498;0.092;2023-12-29T02:18:19;10;10;
64229;PMS5003;50547;49.498;0.092;2023-12-29T02:20:50;7;7;
64229;PMS5003;50547;49.498;0.092;2023-12-29T02:23:20;9;9;
64229;PMS5003;50547;49.498;0.092;2023-12-29T02:25:49;7;7;
64229;PMS5003;50547;49.498;0.092;2023-12-29T02:28:19;7;7;
64229;PMS5003;50547;49.498;0.092;2023-12-29T02:30:54;6;6;
64229;PMS5003;50547;49.498;0.092;2023-12-29T02:33:29;7;7;
64229;PMS5003;50547;49.498;0.092;2023-12-29T02:36:01;7;7;
64229;PMS5003;50547;49.498;0.092;2023-12-29T02:38:47;7;7;
64229;PMS5003;50547;49.498;0.092;2023-12-29T02:41:16;7;7;
64229;PMS5003;50547;49.498;0.092;2023-12-29T02:43:45;7;7;
64229;PMS5003;50547;49.498;0.092;2023-12-29T02:46:14;7;7;
64229;PMS5003;50547;49.498;0.092;2023-12-29T02:48:43;8;8;
64229;PMS5003;50547;49.498;0.092;2023-12-29T02:51:12;8;8;
64229;PMS5003;50547;49.498;0.092;2023-12-29T02:53:41;8;8;
64229;PMS5003;50547;49.498;0.092;2023-12-29T02:56:10;7;7;
64229;PMS5003;50547;49.498;0.092;2023-12-29T02:58:40;8;8;
64229;PMS5003;50547;49.498;0.092;2023-12-29T03:01:09;8;8;
64229;PMS5003;50547;49.498;0.092;2023-12-29T03:03:38;7;7;
64229;PMS5003;50547;49.498;0.092;2023-12-29T03:06:07;8;8;
64229;PMS5003;50547;49.498;0.092;2023-12-29T03:08:36;7;7;
64229;PMS5003;50547;49.498;0.092;2023-12-29T03:11:05;7;7;
64229;PMS5003;50547;49.498;0.092;2023-12-29T03:13:34;7;7;
64229;PMS5003;50547;49.498;0.092;2023-12-29T03:16:03;7;7;
64229;PMS5003;50547;49.498;0.092;2023-12-29T03:18:33;7;7;
64229;PMS5003;50547;49.498;0.092;2023-12-29T03:21:02;8;8;
64229;PMS5003;50547;49.498;0.092;2023-12-29T03:23:31;7;7;
64229;PMS5003;50547;49.498;0.092;2023-12-29T03:26:00;7;7;
64229;PMS5003;50547;49.498;0.092;2023-12-29T03:28:29;7;7;
64229;PMS5003;50547;49.498;0.092;2023-12-29T03:30:58;7;7;
64229;PMS5003;50547;49.498;0.092;2023-12-29T03:33:27;6;6;
64229;PMS5003;50547;49.498;0.092;2023-12-29T03:35:56;7;7;
64229;PMS5003;50547;49.498;0.092;2023-12-29T03:38:25;6;6;
64229;PMS5003;50547;49.498;0.092;2023-12-29T03:40:54;7;7;
64229;PMS5003;50547;49.498;0.092;2023-12-29T03:43:24;7;7;
64229;PMS5003;50547;49.498;0.092;2023-12-29T03:45:58;6;6;
64229;PMS5003;50547;49.498;0.092;2023-12-29T03:48:28;6;6;
64229;PMS5003;50547;49.498;0.092;2023-12-29T03:50:57;7;7;
64229;PMS5003;50547;49.498;0.092;2023-12-29T03:53:31;5;5;
64229;PMS5003;50547;49.498;0.092;2023-12-29T03:56:04;7;7;
64229;PMS5003;50547;49.498;0.092;2023-12-29T03:58:33;7;7;
64229;PMS5003;50547;49.498;0.092;2023-12-29T04:01:03;6;6;
64229;PMS5003;50547;49.498;0.092;2023-12-29T04:03:32;7;7;
64229;PMS5003;50547;49.498;0.092;2023-12-29T04:06:02;7;7;
64229;PMS5003;50547;49.498;0.092;2023-12-29T04:08:31;6;6;
64229;PMS5003;50547;49.498;0.092;2023-12-29T04:11:00;7;7;
64229;PMS5003;50547;49.498;0.092;2023-12-29T04:13:29;8;8;
64229;PMS5003;50547;49.498;0.092;2023-12-29T04:15:59;6;6;
64229;PMS5003;50547;49.498;0.092;2023-12-29T04:18:28;6;6;
64229;PMS5003;50547;49.498;0.092;2023-12-29T04:20:58;7;7;
64229;PMS5003;50547;49.498;0.092;2023-12-29T04:23:27;5;5;
64229;PMS5003;50547;49.498;0.092;2023-12-29T04:25:56;6;6;
64229;PMS5003;50547;49.498;0.092;2023-12-29T04:28:25;7;7;
64229;PMS5003;50547;49.498;0.092;2023-12-29T04:30:54;5;5;
64229;PMS5003;50547;49.498;0.092;2023-12-29T04:33:23;6;6;
64229;PMS5003;50547;49.498;0.092;2023-12-29T04:35:52;5;5;
64229;PMS5003;50547;49.498;0.092;2023-12-29T04:38:21;4;4;
64229;PMS5003;50547;49.498;0.092;2023-12-29T04:40:50;6;6;
64229;PMS5003;50547;49.498;0.092;2023-12-29T04:43:19;6;6;
64229;PMS5003;50547;49.498;0.092;2023-12-29T04:45:48;6;6;
64229;PMS5003;50547;49.498;0.092;2023-12-29T04:48:17;6;6;
64229;PMS5003;50547;49.498;0.092;2023-12-29T04:50:46;7;7;
64229;PMS5003;50547;49.498;0.092;2023-12-29T04:53:16;5;5;
64229;PMS5003;50547;49.498;0.092;2023-12-29T04:55:45;7;7;
64229;PMS5003;50547;49.498;0.092;2023-12-29T04:58:14;6;6;
64229;PMS5003;50547;49.498;0.092;2023-12-29T05:00:43;7;7;
64229;PMS5003;50547;49.498;0.092;2023-12-29T05:03:12;6;6;
64229;PMS5003;50547;49.498;0.092;2023-12-29T05:05:41;6;6;
64229;PMS5003;50547;49.498;0.092;2023-12-29T05:08:15;7;7;
64229;PMS5003;50547;49.498;0.092;2023-12-29T05:10:44;7;7;
64229;PMS5003;50547;49.498;0.092;2023-12-29T05:13:13;6;6;
64229;PMS5003;50547;49.498;0.092;2023-12-29T05:15:47;7;7;
64229;PMS5003;50547;49.498;0.092;2023-12-29T05:18:16;6;6;
64229;PMS5003;50547;49.498;0.092;2023-12-29T05:20:45;6;6;
64229;PMS5003;50547;49.498;0.092;2023-12-29T05:23:14;7;7;
64229;PMS5003;50547;49.498;0.092;2023-12-29T05:25:43;7;7;
64229;PMS5003;50547;49.498;0.092;2023-12-29T05:28:12;6;6;
64229;PMS5003;50547;49.498;0.092;2023-12-29T05:30:41;5;5;
64229;PMS5003;50547;49.498;0.092;2023-12-29T05:33:10;7;7;
64229;PMS5003;50547;49.498;0.092;2023-12-29T05:35:39;6;6;
64229;PMS5003;50547;49.498;0.092;2023-12-29T05:38:09;7;7;
64229;PMS5003;50547;49.498;0.092;2023-12-29T05:40:38;6;6;
64229;PMS5003;50547;49.498;0.092;2023-12-29T05:43:07;5;5;
64229;PMS5003;50547;49.498;0.092;2023-12-29T05:45:37;6;6;
64229;PMS5003;50547;49.498;0.092;2023-12-29T05:48:06;7;7;
64229;PMS5003;50547;49.498;0.092;2023-12-29T05:50:36;6;6;
64229;PMS5003;50547;49.498;0.092;2023-12-29T05:53:05;5;5;
64229;PMS5003;50547;49.498;0.092;2023-12-29T05:55:34;5;5;
64229;PMS5003;50547;49.498;0.092;2023-12-29T05:58:03;5;5;
64229;PMS5003;50547;49.498;0.092;2023-12-29T06:00:32;5;5;
64229;PMS5003;50547;49.498;0.092;2023-12-29T06:03:02;6;6;
64229;PMS5003;50547;49.498;0.092;2023-12-29T06:05:31;7;7;
64229;PMS5003;50547;49.498;0.092;2023-12-29T06:08:01;6;6;
64229;PMS5003;50547;49.498;0.092;2023-12-29T06:10:30;5;5;
64229;PMS5003;50547;49.498;0.092;2023-12-29T06:13:00;7;7;
64229;PMS5003;50547;49.498;0.092;2023-12-29T06:15:30;5;5;
64229;PMS5003;50547;49.498;0.092;2023-12-29T06:17:59;7;7;
64229;PMS5003;50547;49.498;0.092;2023-12-29T06:20:28;5;5;
64229;PMS5003;50547;49.498;0.092;2023-12-29T06:22:57;6;6;
64229;PMS5003;50547;49.498;0.092;2023-12-29T06:25:26;5;5;
64229;PMS5003;50547;49.498;0.092;2023-12-29T06:27:55;6;6;
64229;PMS5003;50547;49.498;0.092;2023-12-29T06:30:24;7;7;
64229;PMS5003;50547;49.498;0.092;2023-12-29T06:32:53;4;4;
64229;PMS5003;50547;49.498;0.092;2023-12-29T06:35:22;7;7;
64229;PMS5003;50547;49.498;0.092;2023-12-29T06:37:52;7;7;
64229;PMS5003;50547;49.498;0.092;2023-12-29T06:40:21;6;6;
64229;PMS5003;50547;49.498;0.092;2023-12-29T06:42:50;5;5;
64229;PMS5003;50547;49.498;0.092;2023-12-29T06:45:19;5;5;
64229;PMS5003;50547;49.498;0.092;2023-12-29T06:47:48;7;7;
64229;PMS5003;50547;49.498;0.092;2023-12-29T06:50:17;6;6;
64229;PMS5003;50547;49.498;0.092;2023-12-29T06:52:46;7;7;
64229;PMS5003;50547;49.498;0.092;2023-12-29T06:55:15;8;8;
64229;PMS5003;50547;49.498;0.092;2023-12-29T06:57:44;7;7;
64229;PMS5003;50547;49.498;0.092;2023-12-29T07:00:13;7;7;
64229;PMS5003;50547;49.498;0.092;2023-12-29T07:02:43;7;7;
64229;PMS5003;50547;49.498;0.092;2023-12-29T07:05:12;7;7;
64229;PMS5003;50547;49.498;0.092;2023-12-29T07:07:41;7;7;
64229;PMS5003;50547;49.498;0.092;2023-12-29T07:10:12;7;7;
64229;PMS5003;50547;49.498;0.092;2023-12-29T07:12:41;7;7;
64229;PMS5003;50547;49.498;0.092;2023-12-29T07:15:10;6;6;
64229;PMS5003;50547;49.498;0.092;2023-12-29T07:17:39;7;7;
64229;PMS5003;50547;49.498;0.092;2023-12-29T07:20:08;6;6;
64229;PMS5003;50547;49.498;0.092;2023-12-29T07:22:38;8;8;
64229;PMS5003;50547;49.498;0.092;2023-12-29T07:25:07;8;8;
64229;PMS5003;50547;49.498;0.092;2023-12-29T07:27:36;7;7;
64229;PMS5003;50547;49.498;0.092;2023-12-29T07:30:06;7;7;
64229;PMS5003;50547;49.498;0.092;2023-12-29T07:32:36;6;6;
64229;PMS5003;50547;49.498;0.092;2023-12-29T07:35:05;7;7;
64229;PMS5003;50547;49.498;0.092;2023-12-29T07:37:35;7;7;
64229;PMS5003;50547;49.498;0.092;2023-12-29T07:40:05;6;6;
64229;PMS5003;50547;49.498;0.092;2023-12-29T07:42:35;8;8;
64229;PMS5003;50547;49.498;0.092;2023-12-29T07:45:04;8;8;
64229;PMS5003;50547;49.498;0.092;2023-12-29T07:47:34;7;7;
64229;PMS5003;50547;49.498;0.092;2023-12-29T07:50:04;8;8;
64229;PMS5003;50547;49.498;0.092;2023-12-29T07:52:34;7;7;
64229;PMS5003;50547;49.498;0.092;2023-12-29T07:55:03;7;7;
64229;PMS5003;50547;49.498;0.092;2023-12-29T07:57:33;9;9;
64229;PMS5003;50547;49.498;0.092;2023-12-29T08:00:02;7;7;
64229;PMS5003;50547;49.498;0.092;2023-12-29T08:02:32;6;6;
64229;PMS5003;50547;49.498;0.092;2023-12-29T08:05:01;8;8;
64229;PMS5003;50547;49.498;0.092;2023-12-29T08:07:30;6;6;
64229;PMS5003;50547;49.498;0.092;2023-12-29T08:10:00;8;8;
64229;PMS5003;50547;49.498;0.092;2023-12-29T08:12:29;7;7;
64229;PMS5003;50547;49.498;0.092;2023-12-29T08:14:58;7;7;
64229;PMS5003;50547;49.498;0.092;2023-12-29T08:17:27;7;7;
64229;PMS5003;50547;49.498;0.092;2023-12-29T08:19:56;8;8;
64229;PMS5003;50547;49.498;0.092;2023-12-29T08:22:29;8;8;
64229;PMS5003;50547;49.498;0.092;2023-12-29T08:24:59;7;7;
64229;PMS5003;50547;49.498;0.092;2023-12-29T08:27:28;7;7;
64229;PMS5003;50547;49.498;0.092;2023-12-29T08:29:57;6;6;
64229;PMS5003;50547;49.498;0.092;2023-12-29T08:32:26;8;8;
64229;PMS5003;50547;49.498;0.092;2023-12-29T08:34:55;7;7;
64229;PMS5003;50547;49.498;0.092;2023-12-29T08:37:24;7;7;
64229;PMS5003;50547;49.498;0.092;2023-12-29T08:39:53;7;7;
64229;PMS5003;50547;49.498;0.092;2023-12-29T08:42:23;8;8;
64229;PMS5003;50547;49.498;0.092;2023-12-29T08:44:52;7;7;
64229;PMS5003;50547;49.498;0.092;2023-12-29T08:47:21;7;7;
64229;PMS5003;50547;49.498;0.092;2023-12-29T08:49:50;6;6;
64229;PMS5003;50547;49.498;0.092;2023-12-29T08:52:19;7;7;
64229;PMS5003;50547;49.498;0.092;2023-12-29T08:54:48;7;7;
64229;PMS5003;50547;49.498;0.092;2023-12-29T08:57:17;7;7;
64229;PMS5003;50547;49.498;0.092;2023-12-29T08:59:44;7;7;
64229;PMS5003;50547;49.498;0.092;2023-12-29T09:02:13;7;7;
64229;PMS5003;50547;49.498;0.092;2023-12-29T09:04:42;7;7;
64229;PMS5003;50547;49.498;0.092;2023-12-29T09:07:11;8;8;
64229;PMS5003;50547;49.498;0.092;2023-12-29T09:09:40;8;8;
64229;PMS5003;50547;49.498;0.092;2023-12-29T09:12:09;8;8;
64229;PMS5003;50547;49.498;0.092;2023-12-29T09:14:38;8;8;
64229;PMS5003;50547;49.498;0.092;2023-12-29T09:17:07;6;6;
64229;PMS5003;50547;49.498;0.092;2023-12-29T09:19:36;7;7;
64229;PMS5003;50547;49.498;0.092;2023-12-29T09:22:03;7;7;
64229;PMS5003;50547;49.498;0.092;2023-12-29T09:24:32;7;7;
64229;PMS5003;50547;49.498;0.092;2023-12-29T09:27:02;7;7;
64229;PMS5003;50547;49.498;0.092;2023-12-29T09:29:31;7;7;
64229;PMS5003;50547;49.498;0.092;2023-12-29T09:32:00;8;8;
64229;PMS5003;50547;49.498;0.092;2023-12-29T09:34:29;8;8;
64229;PMS5003;50547;49.498;0.092;2023-12-29T09:36:58;6;6;
64229;PMS5003;50547;49.498;0.092;2023-12-29T09:39:27;5;5;
64229;PMS5003;50547;49.498;0.092;2023-12-29T09:41:57;5;5;
64229;PMS5003;50547;49.498;0.092;2023-12-29T09:44:27;7;7;
64229;PMS5003;50547;49.498;0.092;2023-12-29T09:46:57;7;7;
64229;PMS5003;50547;49.498;0.092;2023-12-29T09:49:31;6;6;
64229;PMS5003;50547;49.498;0.092;2023-12-29T09:52:07;7;7;
64229;PMS5003;50547;49.498;0.092;2023-12-29T09:54:37;7;7;
64229;PMS5003;50547;49.498;0.092;2023-12-29T09:57:06;8;8;
64229;PMS5003;50547;49.498;0.092;2023-12-29T09:59:36;7;7;
64229;PMS5003;50547;49.498;0.092;2023-12-29T10:02:12;8;8;
64229;PMS5003;50547;49.498;0.092;2023-12-29T10:04:43;10;10;
64229;PMS5003;50547;49.498;0.092;2023-12-29T10:07:14;8;8;
64229;PMS5003;50547;49.498;0.092;2023-12-29T10:09:45;8;8;
64229;PMS5003;50547;49.498;0.092;2023-12-29T10:12:16;8;8;
64229;PMS5003;50547;49.498;0.092;2023-12-29T10:14:48;8;8;
64229;PMS5003;50547;49.498;0.092;2023-12-29T10:17:25;8;8;
64229;PMS5003;50547;49.498;0.092;2023-12-29T10:20:02;8;8;
64229;PMS5003;50547;49.498;0.092;2023-12-29T10:22:40;6;6;
64229;PMS5003;50547;49.498;0.092;2023-12-29T10:25:16;7;7;
64229;PMS5003;50547;49.498;0.092;2023-12-29T10:27:46;7;7;
64229;PMS5003;50547;49.498;0.092;2023-12-29T10:30:15;10;10;
64229;PMS5003;50547;49.498;0.092;2023-12-29T10:32:47;10;10;
64229;PMS5003;50547;49.498;0.092;2023-12-29T10:35:18;7;7;
64229;PMS5003;50547;49.498;0.092;2023-12-29T10:37:47;7;7;
64229;PMS5003;50547;49.498;0.092;2023-12-29T10:40:17;7;7;
64229;PMS5003;50547;49.498;0.092;2023-12-29T10:42:55;7;7;
64229;PMS5003;50547;49.498;0.092;2023-12-29T10:45:24;8;8;
64229;PMS5003;50547;49.498;0.092;2023-12-29T10:47:54;7;7;
64229;PMS5003;50547;49.498;0.092;2023-12-29T10:50:23;7;7;
64229;PMS5003;50547;49.498;0.092;2023-12-29T10:52:52;8;8;
64229;PMS5003;50547;49.498;0.092;2023-12-29T10:55:39;8;8;
64229;PMS5003;50547;49.498;0.092;2023-12-29T10:58:08;7;7;
64229;PMS5003;50547;49.498;0.092;2023-12-29T11:00:37;7;7;
64229;PMS5003;50547;49.498;0.092;2023-12-29T11:03:06;8;8;
64229;PMS5003;50547;49.498;0.092;2023-12-29T11:05:36;7;7;
64229;PMS5003;50547;49.498;0.092;2023-12-29T11:08:07;8;8;
64229;PMS5003;50547;49.498;0.092;2023-12-29T11:10:44;8;8;
64229;PMS5003;50547;49.498;0.092;2023-12-29T11:13:14;7;7;
64229;PMS5003;50547;49.498;0.092;2023-12-29T11:15:43;8;8;
64229;PMS5003;50547;49.498;0.092;2023-12-29T11:18:14;7;7;
64229;PMS5003;50547;49.498;0.092;2023-12-29T11:20:45;8;8;
64229;PMS5003;50547;49.498;0.092;2023-12-29T11:23:14;8;8;
64229;PMS5003;50547;49.498;0.092;2023-12-29T11:25:44;7;7;
64229;PMS5003;50547;49.498;0.092;2023-12-29T11:28:13;7;7;
64229;PMS5003;50547;49.498;0.092;2023-12-29T11:30:42;7;7;
64229;PMS5003;50547;49.498;0.092;2023-12-29T11:33:14;7;7;
64229;PMS5003;50547;49.498;0.092;2023-12-29T11:35:47;7;7;
64229;PMS5003;50547;49.498;0.092;2023-12-29T11:38:24;7;7;
64229;PMS5003;50547;49.498;0.092;2023-12-29T11:41:03;6;6;
64229;PMS5003;50547;49.498;0.092;2023-12-29T11:43:37;9;9;
64229;PMS5003;50547;49.498;0.092;2023-12-29T11:46:06;8;8;
64229;PMS5003;50547;49.498;0.092;2023-12-29T11:49:04;7;7;
64229;PMS5003;50547;49.498;0.092;2023-12-29T11:51:34;7;7;
64229;PMS5003;50547;49.498;0.092;2023-12-29T11:54:05;7;7;
64229;PMS5003;50547;49.498;0.092;2023-12-29T11:56:35;7;7;
64229;PMS5003;50547;49.498;0.092;2023-12-29T11:59:13;18;16;
64229;PMS5003;50547;49.498;0.092;2023-12-29T12:01:43;8;8;
64229;PMS5003;50547;49.498;0.092;2023-12-29T12:04:44;9;9;
64229;PMS5003;50547;49.498;0.092;2023-12-29T12:07:15;10;10;
64229;PMS5003;50547;49.498;0.092;2023-12-29T12:09:45;8;8;
64229;PMS5003;50547;49.498;0.092;2023-12-29T12:12:14;7;7;
64229;PMS5003;50547;49.498;0.092;2023-12-29T12:15:08;8;8;
64229;PMS5003;50547;49.498;0.092;2023-12-29T12:18:01;7;7;
64229;PMS5003;50547;49.498;0.092;2023-12-29T12:20:30;8;8;
64229;PMS5003;50547;49.498;0.092;2023-12-29T12:23:00;9;9;
64229;PMS5003;50547;49.498;0.092;2023-12-29T12:25:30;8;8;
64229;PMS5003;50547;49.498;0.092;2023-12-29T12:28:00;7;7;
64229;PMS5003;50547;49.498;0.092;2023-12-29T12:30:33;8;8;
64229;PMS5003;50547;49.498;0.092;2023-12-29T12:33:03;8;8;
64229;PMS5003;50547;49.498;0.092;2023-12-29T12:35:33;7;7;
64229;PMS5003;50547;49.498;0.092;2023-12-29T12:38:10;8;8;
64229;PMS5003;50547;49.498;0.092;2023-12-29T12:40:39;7;7;
64229;PMS5003;50547;49.498;0.092;2023-12-29T12:43:11;7;7;
64229;PMS5003;50547;49.498;0.092;2023-12-29T12:45:46;7;7;
64229;PMS5003;50547;49.498;0.092;2023-12-29T12:48:19;7;7;
64229;PMS5003;50547;49.498;0.092;2023-12-29T12:50:52;7;7;
64229;PMS5003;50547;49.498;0.092;2023-12-29T12:53:23;7;7;
64229;PMS5003;50547;49.498;0.092;2023-12-29T12:55:50;7;7;
64229;PMS5003;50547;49.498;0.092;2023-12-29T12:58:21;7;7;
64229;PMS5003;50547;49.498;0.092;2023-12-29T13:00:51;8;8;
64229;PMS5003;50547;49.498;0.092;2023-12-29T13:03:20;7;7;
64229;PMS5003;50547;49.498;0.092;2023-12-29T13:05:50;7;7;
64229;PMS5003;50547;49.498;0.092;2023-12-29T13:08:20;7;7;
64229;PMS5003;50547;49.498;0.092;2023-12-29T13:10:49;8;8;
64229;PMS5003;50547;49.498;0.092;2023-12-29T13:13:19;7;7;
64229;PMS5003;50547;49.498;0.092;2023-12-29T13:15:48;8;8;
64229;PMS5003;50547;49.498;0.092;2023-12-29T13:18:27;7;7;
64229;PMS5003;50547;49.498;0.092;2023-12-29T13:20:57;8;8;
64229;PMS5003;50547;49.498;0.092;2023-12-29T13:23:26;7;7;
64229;PMS5003;50547;49.498;0.092;2023-12-29T13:25:57;6;6;
64229;PMS5003;50547;49.498;0.092;2023-12-29T13:28:28;6;6;
64229;PMS5003;50547;49.498;0.092;2023-12-29T13:30:59;7;7;
64229;PMS5003;50547;49.498;0.092;2023-12-29T13:33:31;5;5;
64229;PMS5003;50547;49.498;0.092;2023-12-29T13:36:08;7;7;
64229;PMS5003;50547;49.498;0.092;2023-12-29T13:38:42;7;7;
64229;PMS5003;50547;49.498;0.092;2023-12-29T13:41:18;5;5;
64229;PMS5003;50547;49.498;0.092;2023-12-29T13:43:50;7;7;
64229;PMS5003;50547;49.498;0.092;2023-12-29T13:46:21;7;7;
64229;PMS5003;50547;49.498;0.092;2023-12-29T13:48:51;8;8;
64229;PMS5003;50547;49.498;0.092;2023-12-29T13:51:23;7;7;
64229;PMS5003;50547;49.498;0.092;2023-12-29T13:54:00;7;7;
64229;PMS5003;50547;49.498;0.092;2023-12-29T13:56:30;7;7;
64229;PMS5003;50547;49.498;0.092;2023-12-29T13:58:59;6;6;
64229;PMS5003;50547;49.498;0.092;2023-12-29T14:01:28;7;7;
64229;PMS5003;50547;49.498;0.092;2023-12-29T14:04:06;6;6;
64229;PMS5003;50547;49.498;0.092;2023-12-29T14:06:40;7;7;
64229;PMS5003;50547;49.498;0.092;2023-12-29T14:09:17;7;7;
64229;PMS5003;50547;49.498;0.092;2023-12-29T14:11:48;5;5;
64229;PMS5003;50547;49.498;0.092;2023-12-29T14:14:21;7;7;
64229;PMS5003;50547;49.498;0.092;2023-12-29T14:16:50;6;6;
64229;PMS5003;50547;49.498;0.092;2023-12-29T14:19:20;5;5;
64229;PMS5003;50547;49.498;0.092;2023-12-29T14:21:50;7;7;
64229;PMS5003;50547;49.498;0.092;2023-12-29T14:24:22;7;7;
64229;PMS5003;50547;49.498;0.092;2023-12-29T14:26:55;7;7;
64229;PMS5003;50547;49.498;0.092;2023-12-29T14:29:25;6;6;
64229;PMS5003;50547;49.498;0.092;2023-12-29T14:31:54;6;6;
64229;PMS5003;50547;49.498;0.092;2023-12-29T14:34:24;7;7;
64229;PMS5003;50547;49.498;0.092;2023-12-29T14:36:53;7;7;
64229;PMS5003;50547;49.498;0.092;2023-12-29T14:39:22;7;7;
64229;PMS5003;50547;49.498;0.092;2023-12-29T14:41:51;7;7;
64229;PMS5003;50547;49.498;0.092;2023-12-29T14:44:21;7;7;
64229;PMS5003;50547;49.498;0.092;2023-12-29T14:46:50;7;7;
64229;PMS5003;50547;49.498;0.092;2023-12-29T14:49:16;7;7;
64229;PMS5003;50547;49.498;0.092;2023-12-29T14:51:45;8;8;
64229;PMS5003;50547;49.498;0.092;2023-12-29T14:54:14;7;7;
64229;PMS5003;50547;49.498;0.092;2023-12-29T14:56:40;8;8;
64229;PMS5003;50547;49.498;0.092;2023-12-29T14:59:09;8;8;
64229;PMS5003;50547;49.498;0.092;2023-12-29T15:01:44;8;8;
64229;PMS5003;50547;49.498;0.092;2023-12-29T15:04:13;8;8;
64229;PMS5003;50547;49.498;0.092;2023-12-29T15:06:42;7;7;
64229;PMS5003;50547;49.498;0.092;2023-12-29T15:09:10;8;8;
64229;PMS5003;50547;49.498;0.092;2023-12-29T15:11:39;8;8;
64229;PMS5003;50547;49.498;0.092;2023-12-29T15:14:08;8;8;
64229;PMS5003;50547;49.498;0.092;2023-12-29T15:16:37;8;8;
64229;PMS5003;50547;49.498;0.092;2023-12-29T15:19:06;8;8;
64229;PMS5003;50547;49.498;0.092;2023-12-29T15:21:35;7;7;
64229;PMS5003;50547;49.498;0.092;2023-12-29T15:24:04;10;10;
64229;PMS5003;50547;49.498;0.092;2023-12-29T15:26:33;7;7;
64229;PMS5003;50547;49.498;0.092;2023-12-29T15:29:03;8;8;
64229;PMS5003;50547;49.498;0.092;2023-12-29T15:31:32;8;8;
64229;PMS5003;50547;49.498;0.092;2023-12-29T15:34:01;7;7;
64229;PMS5003;50547;49.498;0.092;2023-12-29T15:36:30;7;7;
64229;PMS5003;50547;49.498;0.092;2023-12-29T15:38:59;7;7;
64229;PMS5003;50547;49.498;0.092;2023-12-29T15:41:28;8;8;
64229;PMS5003;50547;49.498;0.092;2023-12-29T15:43:57;8;8;
64229;PMS5003;50547;49.498;0.092;2023-12-29T15:46:26;9;9;
64229;PMS5003;50547;49.498;0.092;2023-12-29T15:48:55;8;8;
64229;PMS5003;50547;49.498;0.092;2023-12-29T15:51:24;8;8;
64229;PMS5003;50547;49.498;0.092;2023-12-29T15:53:53;8;8;
64229;PMS5003;50547;49.498;0.092;2023-12-29T15:56:22;10;10;
64229;PMS5003;50547;49.498;0.092;2023-12-29T15:58:51;9;9;
64229;PMS5003;50547;49.498;0.092;2023-12-29T16:01:25;8;8;
64229;PMS5003;50547;49.498;0.092;2023-12-29T16:03:55;10;10;
64229;PMS5003;50547;49.498;0.092;2023-12-29T16:06:29;10;10;
64229;PMS5003;50547;49.498;0.092;2023-12-29T16:08:58;8;8;
64229;PMS5003;50547;49.498;0.092;2023-12-29T16:11:24;8;8;
64229;PMS5003;50547;49.498;0.092;2023-12-29T16:13:54;8;8;
64229;PMS5003;50547;49.498;0.092;2023-12-29T16:16:37;9;9;
64229;PMS5003;50547;49.498;0.092;2023-12-29T16:19:06;8;8;
64229;PMS5003;50547;49.498;0.092;2023-12-29T16:21:35;10;10;
64229;PMS5003;50547;49.498;0.092;2023-12-29T16:24:02;28;24;
64229;PMS5003;50547;49.498;0.092;2023-12-29T16:26:31;24;21;
64229;PMS5003;50547;49.498;0.092;2023-12-29T16:29:00;60;53;
64229;PMS5003;50547;49.498;0.092;2023-12-29T16:31:29;41;38;
64229;PMS5003;50547;49.498;0.092;2023-12-29T16:33:58;31;27;
64229;PMS5003;50547;49.498;0.092;2023-12-29T16:36:27;20;17;
64229;PMS5003;50547;49.498;0.092;2023-12-29T16:38:56;11;11;
64229;PMS5003;50547;49.498;0.092;2023-12-29T16:41:23;10;10;
64229;PMS5003;50547;49.498;0.092;2023-12-29T16:43:52;11;11;
64229;PMS5003;50547;49.498;0.092;2023-12-29T16:46:21;10;10;
64229;PMS5003;50547;49.498;0.092;2023-12-29T16:48:50;28;24;
64229;PMS5003;50547;49.498;0.092;2023-12-29T16:51:19;32;28;
64229;PMS5003;50547;49.498;0.092;2023-12-29T16:53:48;27;23;
64229;PMS5003;50547;49.498;0.092;2023-12-29T16:56:17;13;13;
64229;PMS5003;50547;49.498;0.092;2023-12-29T16:58:46;11;11;
64229;PMS5003;50547;49.498;0.092;2023-12-29T17:01:15;10;10;
64229;PMS5003;50547;49.498;0.092;2023-12-29T17:03:44;10;10;
64229;PMS5003;50547;49.498;0.092;2023-12-29T17:06:14;14;14;
64229;PMS5003;50547;49.498;0.092;2023-12-29T17:08:43;11;11;